^^
Datos históricos de la estación: Murcia-Puente Tocinos
Diario Informe para Noviembre 23, 2019 Unidades:  Ambas    Ingés   Métrico
Diario Semanal Mensual Anual
  Máxima: Mínima: Promedio:
Temperatura: 64 °F /  17.8 °C 52.2 °F /  11.2 °C 59.7 °F /  15.4 °C
Punto de rocio: 53.1 °F /  11.7 °C 33.6 °F /  0.9 °C 39.2 °F /  4 °C
Humedad: 97% 32.8% 49%
Velocidad viento: 18.1mph /  29.1km/h - 9.2mph /  14.8km/h
Racha viento: 38mph /  61.2km/h - -
Viento- - SO
Presión: 29.8 in /  1008.9 hPa 29.3 in /  993.4 hPa -
Precipitación: 0.01 in /  0.2 mm    
 
 
Tabla de datos para Noviembre 23, 2019
Hora Temperatura Punto de rocio Presión Viento Velocidad viento Racha viento Humedad Intensidad lluvia(por hora) Nubes
00:04 54.1 °F /  12.3 °C 53.1 °F /  11.7 °C 29.4in /  995.0hPa SE 1.1mph /  1.8km/h 3.6mph /  5.8km/h 96% 0in /  0.0mm
00:09 54.1 °F /  12.3 °C 53.1 °F /  11.7 °C 29.4in /  995.0hPa Calm   5.8mph /  9.3km/h 96% 0in /  0.0mm
00:14 54.1 °F /  12.3 °C 53.1 °F /  11.7 °C 29.4in /  994.7hPa SE 1.4mph /  2.2km/h 6mph /  9.7km/h 96% 0in /  0.0mm
00:19 54.1 °F /  12.3 °C 53.1 °F /  11.7 °C 29.4in /  994.7hPa SE 2mph /  3.2km/h 3.1mph /  5km/h 96% 0in /  0.0mm
00:24 54.1 °F /  12.3 °C 53.1 °F /  11.7 °C 29.4in /  994.7hPa SSE 1.6mph /  2.6km/h 3.5mph /  5.6km/h 96% 0in /  0.0mm
00:29 54 °F /  12.2 °C 52.9 °F /  11.6 °C 29.4in /  994.7hPa SSO 1.4mph /  2.2km/h 3mph /  4.8km/h 96.1% 0in /  0.0mm
00:34 54.1 °F /  12.3 °C 53.1 °F /  11.7 °C 29.4in /  994.7hPa SSO 0.4mph /  0.7km/h 3.6mph /  5.8km/h 96.4% 0in /  0.0mm
00:39 54 °F /  12.2 °C 52.7 °F /  11.5 °C 29.4in /  994.7hPa Calm   4mph /  6.4km/h 96% 0in /  0.0mm
00:44 53.6 °F /  12 °C 52.5 °F /  11.4 °C 29.4in /  994.6hPa SSO 0.9mph /  1.5km/h 4mph /  6.4km/h 96% 0in /  0.0mm
00:49 53.2 °F /  11.8 °C 52.2 °F /  11.2 °C 29.4in /  994.6hPa Oeste 1.4mph /  2.2km/h 6.9mph /  11.1km/h 96% 0in /  0.0mm
00:54 52.9 °F /  11.6 °C 51.8 °F /  11 °C 29.4in /  994.6hPa SO 2.5mph /  4.1km/h 7mph /  11.3km/h 96% 0in /  0.0mm
00:59 52.5 °F /  11.4 °C 51.4 °F /  10.8 °C 29.4in /  994.6hPa SE 3.1mph /  5km/h 6mph /  9.7km/h 96.2% 0in /  0.0mm
01:04 52.7 °F /  11.5 °C 51.8 °F /  11 °C 29.4in /  994.6hPa OSO 2.4mph /  3.8km/h 5mph /  8km/h 97% 0in /  0.0mm
01:09 52.7 °F /  11.5 °C 52 °F /  11.1 °C 29.4in /  994.6hPa Oeste 2mph /  3.2km/h 5mph /  8km/h 97% 0in /  0.0mm
01:14 52.7 °F /  11.5 °C 52 °F /  11.1 °C 29.4in /  994.3hPa Oeste 1.6mph /  2.6km/h 2.9mph /  4.7km/h 97% 0in /  0.0mm
01:19 52.5 °F /  11.4 °C 51.6 °F /  10.9 °C 29.4in /  994.3hPa SO 1.4mph /  2.2km/h 4.6mph /  7.4km/h 96.4% 0in /  0.0mm
01:24 52.3 °F /  11.3 °C 51.3 °F /  10.7 °C 29.4in /  994.5hPa Oeste 1.7mph /  2.7km/h 5.2mph /  8.4km/h 96% 0in /  0.0mm
01:29 52.2 °F /  11.2 °C 51.3 °F /  10.7 °C 29.4in /  994.5hPa SO 1.8mph /  2.9km/h 5mph /  8km/h 96.4% 0in /  0.0mm
01:34 52.3 °F /  11.3 °C 51.6 °F /  10.9 °C 29.4in /  994.5hPa SSO 2.7mph /  4.3km/h 5mph /  8km/h 97% 0in /  0.0mm
01:39 52.5 °F /  11.4 °C 51.6 °F /  10.9 °C 29.4in /  994.6hPa SSO 3.1mph /  5km/h 5.9mph /  9.5km/h 97% 0in /  0.0mm
01:44 52.7 °F /  11.5 °C 52 °F /  11.1 °C 29.4in /  994.6hPa SSO 2.4mph /  3.8km/h 6.4mph /  10.3km/h 97% 0in /  0.0mm
01:49 52.9 °F /  11.6 °C 52.2 °F /  11.2 °C 29.4in /  994.6hPa SO 2mph /  3.2km/h 7.4mph /  11.9km/h 97% 0in /  0.0mm
01:54 53.1 °F /  11.7 °C 52.2 °F /  11.2 °C 29.4in /  994.6hPa SSO 4.2mph /  6.7km/h 10.7mph /  17.2km/h 97% 0in /  0.0mm
01:59 53.8 °F /  12.1 °C 52.9 °F /  11.6 °C 29.4in /  994.6hPa SSO 5.2mph /  8.4km/h 15mph /  24.1km/h 96.8% 0in /  0.0mm
02:04 55.8 °F /  13.2 °C 52.7 °F /  11.5 °C 29.4in /  994.6hPa SSO 7.6mph /  12.3km/h 17.3mph /  27.8km/h 89.5% 0in /  0.0mm
02:09 57.6 °F /  14.2 °C 51.1 °F /  10.6 °C 29.4in /  994.6hPa SSO 8.7mph /  14km/h 17mph /  27.4km/h 79.4% 0in /  0.0mm
02:14 58.3 °F /  14.6 °C 49.8 °F /  9.9 °C 29.4in /  994.3hPa Sur 8.7mph /  14km/h 17.3mph /  27.8km/h 73.8% 0in /  0.0mm
02:19 59.2 °F /  15.1 °C 48 °F /  8.9 °C 29.4in /  994.3hPa Sur 8.7mph /  14km/h 20.8mph /  33.5km/h 66.6% 0in /  0.0mm
02:24 60.3 °F /  15.7 °C 46.8 °F /  8.2 °C 29.4in /  994.3hPa Sur 10mph /  16.1km/h 21mph /  33.8km/h 60.9% 0in /  0.0mm
02:29 61.3 °F /  16.3 °C 45.1 °F /  7.3 °C 29.4in /  994.3hPa Sur 10.7mph /  17.2km/h 18.4mph /  29.6km/h 55.4% 0in /  0.0mm
02:34 61.7 °F /  16.5 °C 45 °F /  7.2 °C 29.4in /  994.3hPa Sur 10.3mph /  16.5km/h 18mph /  29km/h 54.3% 0in /  0.0mm
02:39 61.9 °F /  16.6 °C 44.8 °F /  7.1 °C 29.4in /  994.4hPa Sur 10mph /  16.1km/h 17mph /  27.4km/h 53.6% 0in /  0.0mm
02:44 61.7 °F /  16.5 °C 45.1 °F /  7.3 °C 29.4in /  994.4hPa Sur 9.4mph /  15.2km/h 15mph /  24.1km/h 54.6% 0in /  0.0mm
02:49 61.2 °F /  16.2 °C 44.6 °F /  7 °C 29.4in /  994.4hPa Sur 9.2mph /  14.8km/h 14mph /  22.5km/h 54.5% 0in /  0.0mm
02:54 61.2 °F /  16.2 °C 44.2 °F /  6.8 °C 29.4in /  994.5hPa Sur 8.7mph /  14km/h 14mph /  22.5km/h 54% 0in /  0.0mm
02:59 60.8 °F /  16 °C 43.5 °F /  6.4 °C 29.4in /  994.5hPa Sur 8.5mph /  13.7km/h 16.3mph /  26.2km/h 52.9% 0in /  0.0mm
03:04 61.5 °F /  16.4 °C 42.6 °F /  5.9 °C 29.4in /  994.5hPa SSE 7.9mph /  12.7km/h 16.1mph /  25.9km/h 50% 0in /  0.0mm
03:09 61.5 °F /  16.4 °C 42.8 °F /  6 °C 29.4in /  994.5hPa Sur 7.6mph /  12.2km/h 15mph /  24.1km/h 50% 0in /  0.0mm
03:14 61.2 °F /  16.2 °C 42.6 °F /  5.9 °C 29.4in /  994.2hPa SSE 7.6mph /  12.2km/h 14mph /  22.5km/h 50.6% 0in /  0.0mm
03:19 60.6 °F /  15.9 °C 42.4 °F /  5.8 °C 29.4in /  994.2hPa SSE 7.6mph /  12.2km/h 16.1mph /  25.9km/h 50.9% 0in /  0.0mm
03:24 60.4 °F /  15.8 °C 42.4 °F /  5.8 °C 29.4in /  994.4hPa SSE 8.2mph /  13.2km/h 16mph /  25.7km/h 51.5% 0in /  0.0mm
03:29 60.3 °F /  15.7 °C 42.3 °F /  5.7 °C 29.4in /  994.4hPa SSE 8.5mph /  13.7km/h 13mph /  20.9km/h 51.4% 0in /  0.0mm
03:34 60.3 °F /  15.7 °C 42.1 °F /  5.6 °C 29.4in /  994.4hPa Sur 7.4mph /  11.9km/h 12.7mph /  20.4km/h 51.1% 0in /  0.0mm
03:39 60.1 °F /  15.6 °C 42.3 °F /  5.7 °C 29.4in /  994.4hPa SSE 6.9mph /  11.1km/h 13mph /  20.9km/h 51.7% 0in /  0.0mm
03:44 59.5 °F /  15.3 °C 42.4 °F /  5.8 °C 29.4in /  994.1hPa Sur 6.2mph /  10km/h 9.2mph /  14.8km/h 53% 0in /  0.0mm
03:49 59.2 °F /  15.1 °C 42.4 °F /  5.8 °C 29.4in /  994.1hPa Sur 5.9mph /  9.5km/h 11.8mph /  19km/h 53.8% 0in /  0.0mm
03:54 59.2 °F /  15.1 °C 42.1 °F /  5.6 °C 29.4in /  994.1hPa SSO 6.2mph /  10km/h 16.1mph /  25.9km/h 53.2% 0in /  0.0mm
03:59 59.9 °F /  15.5 °C 41.5 °F /  5.3 °C 29.3in /  993.6hPa SO 6.4mph /  10.3km/h 17.5mph /  28.2km/h 50.8% 0in /  0.0mm
04:04 60.6 °F /  15.9 °C 41.2 °F /  5.1 °C 29.3in /  993.6hPa SSO 8.3mph /  13.4km/h 20.7mph /  33.3km/h 48.6% 0in /  0.0mm
04:09 61 °F /  16.1 °C 41.2 °F /  5.1 °C 29.3in /  993.6hPa SSO 9.2mph /  14.8km/h 21mph /  33.8km/h 48% 0in /  0.0mm
04:14 61 °F /  16.1 °C 41.2 °F /  5.1 °C 29.3in /  993.4hPa SSO 10.3mph /  16.5km/h 19.7mph /  31.7km/h 48% 0in /  0.0mm
04:19 61.2 °F /  16.2 °C 41.2 °F /  5.1 °C 29.3in /  993.4hPa SSO 10.7mph /  17.2km/h 20mph /  32.2km/h 48% 0in /  0.0mm
04:24 61 °F /  16.1 °C 41.5 °F /  5.3 °C 29.3in /  993.6hPa SSO 10.4mph /  16.7km/h 20mph /  32.2km/h 48.8% 0in /  0.0mm
04:29 60.6 °F /  15.9 °C 41.7 °F /  5.4 °C 29.3in /  993.6hPa SSO 10.2mph /  16.4km/h 17mph /  27.4km/h 49.8% 0in /  0.0mm
04:34 60.4 °F /  15.8 °C 41.9 °F /  5.5 °C 29.3in /  993.6hPa SSO 10.2mph /  16.4km/h 16.1mph /  25.9km/h 50.4% 0in /  0.0mm
04:39 60.1 °F /  15.6 °C 42.1 °F /  5.6 °C 29.3in /  993.7hPa SSO 10.2mph /  16.4km/h 16.1mph /  25.9km/h 51.3% 0in /  0.0mm
04:44 59.5 °F /  15.3 °C 42.1 °F /  5.6 °C 29.3in /  993.7hPa SSO 9.9mph /  15.9km/h 16mph /  25.7km/h 52.1% 0in /  0.0mm
04:49 59.4 °F /  15.2 °C 42.3 °F /  5.7 °C 29.3in /  993.7hPa SSO 9.7mph /  15.6km/h 14mph /  22.5km/h 53% 0in /  0.0mm
04:54 59.2 °F /  15.1 °C 42.3 °F /  5.7 °C 29.4in /  994.1hPa SO 7.5mph /  12.1km/h 11mph /  17.7km/h 53.6% 0in /  0.0mm
04:59 58.6 °F /  14.8 °C 42.4 °F /  5.8 °C 29.4in /  994.1hPa ONO 6.4mph /  10.3km/h 8mph /  12.9km/h 54.9% 0in /  0.0mm
05:04 58.3 °F /  14.6 °C 42.8 °F /  6 °C 29.4in /  994.1hPa ONO 5mph /  8km/h 7mph /  11.3km/h 56.3% 0in /  0.0mm
05:09 57.7 °F /  14.3 °C 43 °F /  6.1 °C 29.4in /  994.8hPa Oeste 4.3mph /  6.9km/h 6mph /  9.7km/h 57.5% 0in /  0.0mm
05:14 57.4 °F /  14.1 °C 43 °F /  6.1 °C 29.4in /  994.8hPa Oeste 3.5mph /  5.7km/h 9.7mph /  15.6km/h 58.7% 0in /  0.0mm
05:19 56.8 °F /  13.8 °C 43 °F /  6.1 °C 29.4in /  994.8hPa Oeste 3.1mph /  5km/h 11.4mph /  18.3km/h 59.7% 0in /  0.0mm
05:24 57 °F /  13.9 °C 42.4 °F /  5.8 °C 29.4in /  995.4hPa Oeste 5.2mph /  8.4km/h 16.3mph /  26.2km/h 58.1% 0in /  0.0mm
05:29 58.1 °F /  14.5 °C 41.9 °F /  5.5 °C 29.4in /  995.4hPa Oeste 6.2mph /  10km/h 17.3mph /  27.8km/h 54.8% 0in /  0.0mm
05:34 59.2 °F /  15.1 °C 41.4 °F /  5.2 °C 29.4in /  995.4hPa OSO 8.2mph /  13.2km/h 31.3mph /  50.4km/h 51.8% 0in /  0.0mm
05:39 60.4 °F /  15.8 °C 41.2 °F /  5.1 °C 29.4in /  995.5hPa OSO 9.2mph /  14.8km/h 31mph /  49.9km/h 49.1% 0in /  0.0mm
05:44 60.6 °F /  15.9 °C 41.4 °F /  5.2 °C 29.4in /  995.5hPa OSO 15mph /  24.1km/h 31.3mph /  50.4km/h 49% 0in /  0.0mm
05:49 60.4 °F /  15.8 °C 41.5 °F /  5.3 °C 29.4in /  995.5hPa OSO 17.8mph /  28.6km/h 31mph /  49.9km/h 49.5% 0in /  0.0mm
05:54 60.1 °F /  15.6 °C 41.7 °F /  5.4 °C 29.4in /  995.7hPa OSO 15.7mph /  25.3km/h 23mph /  37km/h 50.7% 0in /  0.0mm
05:59 59.5 °F /  15.3 °C 41.7 °F /  5.4 °C 29.4in /  995.7hPa OSO 14.7mph /  23.7km/h 17.3mph /  27.8km/h 51.9% 0in /  0.0mm
06:04 59.4 °F /  15.2 °C 41.9 °F /  5.5 °C 29.4in /  995.7hPa SO 10.5mph /  16.9km/h 17mph /  27.4km/h 52.4% 0in /  0.0mm
06:09 59.2 °F /  15.1 °C 41.9 °F /  5.5 °C 29.4in /  995.7hPa SO 8.7mph /  14km/h 13.5mph /  21.7km/h 53% 0in /  0.0mm
06:14 59 °F /  15 °C 41.9 °F /  5.5 °C 29.4in /  995.1hPa SO 8mph /  12.8km/h 16.1mph /  25.9km/h 53% 0in /  0.0mm
06:19 58.8 °F /  14.9 °C 41.9 °F /  5.5 °C 29.4in /  995.1hPa OSO 7.6mph /  12.2km/h 18.4mph /  29.6km/h 53.3% 0in /  0.0mm
06:24 58.6 °F /  14.8 °C 42.1 °F /  5.6 °C 29.4in /  995.2hPa SO 8.2mph /  13.2km/h 18mph /  29km/h 54% 0in /  0.0mm
06:29 58.5 °F /  14.7 °C 42.3 °F /  5.7 °C 29.4in /  995.2hPa SO 8.5mph /  13.7km/h 13mph /  20.9km/h 55% 0in /  0.0mm
06:34 58.3 °F /  14.6 °C 42.3 °F /  5.7 °C 29.4in /  995.2hPa SSO 8.3mph /  13.3km/h 13.8mph /  22.2km/h 55% 0in /  0.0mm
06:39 58.3 °F /  14.6 °C 42.1 °F /  5.6 °C 29.4in /  995.4hPa SSO 8.1mph /  13km/h 16.1mph /  25.9km/h 55% 0in /  0.0mm
06:44 58.3 °F /  14.6 °C 42.3 °F /  5.7 °C 29.4in /  995.4hPa SO 9.2mph /  14.8km/h 18.5mph /  29.8km/h 55% 0in /  0.0mm
06:49 58.3 °F /  14.6 °C 42.1 °F /  5.6 °C 29.4in /  995.4hPa SO 9.7mph /  15.6km/h 19mph /  30.6km/h 54.9% 0in /  0.0mm
06:54 58.3 °F /  14.6 °C 42.1 °F /  5.6 °C 29.4in /  995.4hPa SO 9.7mph /  15.6km/h 21mph /  33.8km/h 54.7% 0in /  0.0mm
06:59 57.9 °F /  14.4 °C 41.9 °F /  5.5 °C 29.4in /  994.8hPa SO 9.7mph /  15.6km/h 21mph /  33.8km/h 55.2% 0in /  0.0mm
07:04 57.7 °F /  14.3 °C 42.1 °F /  5.6 °C 29.4in /  994.8hPa SO 8.9mph /  14.3km/h 18.5mph /  29.8km/h 56% 0in /  0.0mm
07:09 57.6 °F /  14.2 °C 42.1 °F /  5.6 °C 29.4in /  995.5hPa SO 8.5mph /  13.7km/h 21.9mph /  35.2km/h 56% 0in /  0.0mm
07:14 57.4 °F /  14.1 °C 42.1 °F /  5.6 °C 29.4in /  995.5hPa SO 9.5mph /  15.3km/h 22mph /  35.4km/h 56.4% 0in /  0.0mm
07:19 57 °F /  13.9 °C 42.1 °F /  5.6 °C 29.4in /  995.5hPa SO 10mph /  16.1km/h 17mph /  27.4km/h 57% 0in /  0.0mm
07:24 56.8 °F /  13.8 °C 41.9 °F /  5.5 °C 29.4in /  995.6hPa SO 7.3mph /  11.7km/h 13mph /  20.9km/h 57.1% 0in /  0.0mm
07:29 56.7 °F /  13.7 °C 42.1 °F /  5.6 °C 29.4in /  995.6hPa ONO 5.9mph /  9.5km/h 6mph /  9.7km/h 58% 0in /  0.0mm
07:34 56.5 °F /  13.6 °C 42.1 °F /  5.6 °C 29.4in /  995.6hPa ONO 3.2mph /  5.1km/h 4mph /  6.4km/h 58.3% 0in /  0.0mm
07:39 56.1 °F /  13.4 °C 42.1 °F /  5.6 °C 29.4in /  995.8hPa ONO 1.8mph /  2.9km/h 4.6mph /  7.4km/h 59% 0in /  0.0mm
07:44 56.1 °F /  13.4 °C 42.1 °F /  5.6 °C 29.4in /  995.8hPa SSO 1.6mph /  2.5km/h 5.9mph /  9.5km/h 59.2% 0in /  0.0mm
07:49 55.9 °F /  13.3 °C 42.3 °F /  5.7 °C 29.4in /  995.8hPa SE 1.4mph /  2.2km/h 6mph /  9.7km/h 60.2% 0in /  0.0mm
07:54 55.6 °F /  13.1 °C 42.4 °F /  5.8 °C 29.4in /  995.8hPa SE 2.1mph /  3.3km/h 5mph /  8km/h 61% 0in /  0.0mm
07:59 55.6 °F /  13.1 °C 42.3 °F /  5.7 °C 29.4in /  995.7hPa SE 2.4mph /  3.9km/h 5.2mph /  8.4km/h 61% 0in /  0.0mm
08:04 55.4 °F /  13 °C 42.4 °F /  5.8 °C 29.4in /  995.7hPa SE 2.9mph /  4.6km/h 6.9mph /  11.1km/h 61.6% 0in /  0.0mm
08:09 55.2 °F /  12.9 °C 42.4 °F /  5.8 °C 29.4in /  996.1hPa SE 3.1mph /  5km/h 7mph /  11.3km/h 62% 0in /  0.0mm
08:14 55.2 °F /  12.9 °C 42.4 °F /  5.8 °C 29.4in /  996.1hPa ESE 3.9mph /  6.3km/h 6.9mph /  11.1km/h 62% 0in /  0.0mm
08:19 55.2 °F /  12.9 °C 42.4 °F /  5.8 °C 29.4in /  996.1hPa SSE 4.3mph /  6.9km/h 7mph /  11.3km/h 62% 0in /  0.0mm
08:24 55.4 °F /  13 °C 42.1 °F /  5.6 °C 29.4in /  996.5hPa SSO 4.1mph /  6.6km/h 9.2mph /  14.8km/h 60.9% 0in /  0.0mm
08:29 55.9 °F /  13.3 °C 42.1 °F /  5.6 °C 29.4in /  996.5hPa SO 4mph /  6.5km/h 10.7mph /  17.2km/h 59.4% 0in /  0.0mm
08:34 56.5 °F /  13.6 °C 41.5 °F /  5.3 °C 29.4in /  996.5hPa SO 5.5mph /  8.8km/h 17.8mph /  28.6km/h 57.4% 0in /  0.0mm
08:39 57.2 °F /  14 °C 40.5 °F /  4.7 °C 29.4in /  996.6hPa SO 6.2mph /  10km/h 20.7mph /  33.3km/h 53.2% 0in /  0.0mm
08:44 58.1 °F /  14.5 °C 39.6 °F /  4.2 °C 29.4in /  996.6hPa SO 9.8mph /  15.7km/h 26.8mph /  43.1km/h 50.3% 0in /  0.0mm
08:49 58.5 °F /  14.7 °C 39.4 °F /  4.1 °C 29.4in /  996.6hPa SO 11.4mph /  18.4km/h 27mph /  43.5km/h 49% 0in /  0.0mm
08:54 58.6 °F /  14.8 °C 38.8 °F /  3.8 °C 29.4in /  996.6hPa SO 12.5mph /  20.1km/h 23.5mph /  37.8km/h 47.6% 0in /  0.0mm
08:59 58.8 °F /  14.9 °C 38.5 °F /  3.6 °C 29.4in /  996.6hPa SO 13mph /  20.9km/h 25.6mph /  41.2km/h 46.6% 0.01in /  0.2mm
09:04 59.2 °F /  15.1 °C 38.3 °F /  3.5 °C 29.4in /  996.6hPa SO 13.5mph /  21.7km/h 26mph /  41.8km/h 45.7% 0.01in /  0.2mm
09:09 59.2 °F /  15.1 °C 38.7 °F /  3.7 °C 29.4in /  996.8hPa OSO 13.7mph /  22.1km/h 21mph /  33.8km/h 46.7% 0.01in /  0.2mm
09:14 58.8 °F /  14.9 °C 38.8 °F /  3.8 °C 29.4in /  996.8hPa Oeste 11.2mph /  18.1km/h 18.4mph /  29.6km/h 47.3% 0.01in /  0.2mm
09:19 58.8 °F /  14.9 °C 38.7 °F /  3.7 °C 29.4in /  996.8hPa OSO 10mph /  16.1km/h 18.4mph /  29.6km/h 47.1% 0.01in /  0.2mm
09:24 59 °F /  15 °C 38.5 °F /  3.6 °C 29.5in /  997.2hPa OSO 10.1mph /  16.3km/h 21.3mph /  34.3km/h 46.5% 0.01in /  0.2mm
09:29 59.4 °F /  15.2 °C 38.5 °F /  3.6 °C 29.5in /  997.2hPa OSO 10.2mph /  16.4km/h 21.9mph /  35.2km/h 45.9% 0.01in /  0.2mm
09:34 59.5 °F /  15.3 °C 38.1 °F /  3.4 °C 29.5in /  997.2hPa Oeste 11.7mph /  18.8km/h 22mph /  35.4km/h 45% 0.01in /  0.2mm
09:39 59.5 °F /  15.3 °C 37.9 °F /  3.3 °C 29.5in /  997.5hPa Oeste 12.3mph /  19.8km/h 24.6mph /  39.6km/h 44.6% 0.01in /  0.2mm
09:44 59.7 °F /  15.4 °C 38.3 °F /  3.5 °C 29.5in /  997.5hPa Oeste 12.3mph /  19.8km/h 25mph /  40.2km/h 44.8% 0.01in /  0.2mm
09:49 60.1 °F /  15.6 °C 37.9 °F /  3.3 °C 29.5in /  997.5hPa Oeste 12.3mph /  19.8km/h 32.4mph /  52.1km/h 43.9% 0.01in /  0.2mm
09:54 60.3 °F /  15.7 °C 37.4 °F /  3 °C 29.5in /  997.6hPa OSO 13.1mph /  21.1km/h 32.2mph /  51.8km/h 42.5% 0.01in /  0.2mm
09:59 60.4 °F /  15.8 °C 37.4 °F /  3 °C 29.5in /  997.6hPa OSO 13.5mph /  21.7km/h 32mph /  51.5km/h 42.3% 0.01in /  0.2mm
10:04 60.6 °F /  15.9 °C 37.4 °F /  3 °C 29.5in /  997.6hPa Oeste 15.8mph /  25.5km/h 32mph /  51.5km/h 42.1% 0in /  0.0mm
10:09 60.6 °F /  15.9 °C 37.4 °F /  3 °C 29.5in /  997.6hPa Oeste 16.8mph /  27km/h 38mph /  61.2km/h 42% 0in /  0.0mm
10:14 60.6 °F /  15.9 °C 37.8 °F /  3.2 °C 29.5in /  997.6hPa OSO 17.7mph /  28.5km/h 38mph /  61.2km/h 42.6% 0in /  0.0mm
10:19 60.6 °F /  15.9 °C 38.1 °F /  3.4 °C 29.5in /  997.6hPa OSO 18.1mph /  29.1km/h 32mph /  51.5km/h 43% 0in /  0.0mm
10:24 60.8 °F /  16 °C 37.6 °F /  3.1 °C 29.5in /  997.9hPa OSO 15mph /  24.2km/h 32.4mph /  52.1km/h 42.1% 0in /  0.0mm
10:29 61 °F /  16.1 °C 37.8 °F /  3.2 °C 29.5in /  997.9hPa OSO 13.5mph /  21.7km/h 32mph /  51.5km/h 42% 0in /  0.0mm
10:34 61.2 °F /  16.2 °C 37.9 °F /  3.3 °C 29.5in /  997.9hPa OSO 14.7mph /  23.6km/h 28mph /  45.1km/h 42% 0in /  0.0mm
10:39 61.2 °F /  16.2 °C 37.8 °F /  3.2 °C 29.5in /  998.5hPa Oeste 15.2mph /  24.5km/h 25.3mph /  40.7km/h 41.8% 0in /  0.0mm
10:44 61.3 °F /  16.3 °C 37.9 °F /  3.3 °C 29.5in /  998.5hPa OSO 14mph /  22.6km/h 25mph /  40.2km/h 42% 0in /  0.0mm
10:49 61.5 °F /  16.4 °C 38.1 °F /  3.4 °C 29.5in /  998.5hPa OSO 13.5mph /  21.7km/h 27.9mph /  44.9km/h 41.8% 0in /  0.0mm
10:54 61.5 °F /  16.4 °C 38.1 °F /  3.4 °C 29.5in /  998.5hPa OSO 14.6mph /  23.5km/h 28mph /  45.1km/h 41.9% 0in /  0.0mm
10:59 61.7 °F /  16.5 °C 38.1 °F /  3.4 °C 29.5in /  998.3hPa Oeste 15.2mph /  24.5km/h 26.8mph /  43.1km/h 41.5% 0in /  0.0mm
11:04 61.9 °F /  16.6 °C 37.9 °F /  3.3 °C 29.5in /  998.3hPa Oeste 14.4mph /  23.1km/h 28.8mph /  46.3km/h 41% 0in /  0.0mm
11:09 62.1 °F /  16.7 °C 37.9 °F /  3.3 °C 29.5in /  998.9hPa OSO 14mph /  22.5km/h 29mph /  46.7km/h 40.8% 0in /  0.0mm
11:14 62.2 °F /  16.8 °C 37.4 °F /  3 °C 29.5in /  998.9hPa OSO 14.4mph /  23.1km/h 25mph /  40.2km/h 39.6% 0in /  0.0mm
11:19 62.4 °F /  16.9 °C 37.4 °F /  3 °C 29.5in /  998.9hPa OSO 14.5mph /  23.3km/h 25.6mph /  41.2km/h 39.3% 0in /  0.0mm
11:24 62.6 °F /  17 °C 36.9 °F /  2.7 °C 29.5in /  999.4hPa OSO 14.2mph /  22.8km/h 26mph /  41.8km/h 38.2% 0in /  0.0mm
11:29 62.8 °F /  17.1 °C 36.1 °F /  2.3 °C 29.5in /  999.4hPa OSO 14mph /  22.5km/h 25mph /  40.2km/h 37.1% 0in /  0.0mm
11:34 63 °F /  17.2 °C 36.3 °F /  2.4 °C 29.5in /  999.4hPa OSO 12.6mph /  20.2km/h 24mph /  38.6km/h 37% 0in /  0.0mm
11:39 63.1 °F /  17.3 °C 36 °F /  2.2 °C 29.5in /  999.5hPa OSO 11.8mph /  19km/h 21.3mph /  34.3km/h 36.5% 0in /  0.0mm
11:44 63.1 °F /  17.3 °C 36.3 °F /  2.4 °C 29.5in /  999.5hPa OSO 11.6mph /  18.6km/h 22.5mph /  36.2km/h 36.8% 0in /  0.0mm
11:49 63.1 °F /  17.3 °C 36.3 °F /  2.4 °C 29.5in /  999.5hPa OSO 11.4mph /  18.4km/h 23.5mph /  37.8km/h 36.9% 0in /  0.0mm
11:54 63.3 °F /  17.4 °C 36 °F /  2.2 °C 29.5in /  999.6hPa OSO 12.5mph /  20.1km/h 24.2mph /  38.9km/h 36% 0in /  0.0mm
11:59 63.3 °F /  17.4 °C 36.1 °F /  2.3 °C 29.5in /  999.6hPa OSO 13mph /  20.9km/h 25.6mph /  41.2km/h 36.3% 0in /  0.0mm
12:04 63.3 °F /  17.4 °C 35.8 °F /  2.1 °C 29.5in /  999.6hPa OSO 13.5mph /  21.7km/h 26mph /  41.8km/h 35.9% 0in /  0.0mm
12:09 63.5 °F /  17.5 °C 36.3 °F /  2.4 °C 29.5in /  999.8hPa OSO 13.7mph /  22.1km/h 25mph /  40.2km/h 36.4% 0in /  0.0mm
12:14 63.7 °F /  17.6 °C 36.7 °F /  2.6 °C 29.5in /  999.8hPa Oeste 12.1mph /  19.5km/h 33.4mph /  53.8km/h 36.7% 0in /  0.0mm
12:19 63.5 °F /  17.5 °C 36.5 °F /  2.5 °C 29.5in /  999.8hPa OSO 11.4mph /  18.4km/h 33mph /  53.1km/h 36.8% 0in /  0.0mm
12:24 63.3 °F /  17.4 °C 36.5 °F /  2.5 °C 29.5in /  1000.0hPa OSO 13.4mph /  21.6km/h 31.1mph /  50.1km/h 36.9% 0in /  0.0mm
12:29 63.5 °F /  17.5 °C 36.5 °F /  2.5 °C 29.5in /  1000.0hPa OSO 14.5mph /  23.3km/h 30mph /  48.3km/h 36.7% 0in /  0.0mm
12:34 63.3 °F /  17.4 °C 36 °F /  2.2 °C 29.5in /  1000.0hPa Oeste 14.2mph /  22.8km/h 34.2mph /  55km/h 36.1% 0in /  0.0mm
12:39 63 °F /  17.2 °C 36.1 °F /  2.3 °C 29.5in /  1000.0hPa Oeste 14mph /  22.5km/h 35mph /  56.3km/h 36.7% 0in /  0.0mm
12:44 63 °F /  17.2 °C 36 °F /  2.2 °C 29.5in /  1000.0hPa Oeste 16mph /  25.8km/h 35mph /  56.3km/h 36.6% 0in /  0.0mm
12:49 63 °F /  17.2 °C 36.3 °F /  2.4 °C 29.5in /  1000.0hPa Oeste 17mph /  27.4km/h 30mph /  48.3km/h 36.9% 0in /  0.0mm
12:54 63.1 °F /  17.3 °C 36.5 °F /  2.5 °C 29.5in /  1000.3hPa Oeste 16.5mph /  26.6km/h 29.9mph /  48.1km/h 37% 0in /  0.0mm
12:59 63.7 °F /  17.6 °C 36.9 °F /  2.7 °C 29.5in /  1000.3hPa Oeste 16.3mph /  26.2km/h 30mph /  48.3km/h 37% 0in /  0.0mm
13:04 63.7 °F /  17.6 °C 36.5 °F /  2.5 °C 29.5in /  1000.3hPa Oeste 14mph /  22.5km/h 29mph /  46.7km/h 36.4% 0in /  0.0mm
13:09 63.5 °F /  17.5 °C 36.1 °F /  2.3 °C 29.6in /  1000.6hPa Oeste 13mph /  20.9km/h 29.1mph /  46.8km/h 36.2% 0in /  0.0mm
13:14 63 °F /  17.2 °C 36.1 °F /  2.3 °C 29.6in /  1000.6hPa Oeste 14mph /  22.5km/h 32.2mph /  51.8km/h 36.7% 0in /  0.0mm
13:19 62.6 °F /  17 °C 35.8 °F /  2.1 °C 29.6in /  1000.6hPa Oeste 14.5mph /  23.3km/h 32mph /  51.5km/h 36.8% 0in /  0.0mm
13:24 62.4 °F /  16.9 °C 35.8 °F /  2.1 °C 29.6in /  1000.7hPa Oeste 16.5mph /  26.6km/h 30mph /  48.3km/h 37% 0in /  0.0mm
13:29 62.2 °F /  16.8 °C 35.8 °F /  2.1 °C 29.6in /  1000.7hPa Oeste 17.5mph /  28.2km/h 25mph /  40.2km/h 37.2% 0in /  0.0mm
13:34 62.2 °F /  16.8 °C 36.1 °F /  2.3 °C 29.6in /  1000.7hPa Oeste 14.9mph /  24km/h 24.2mph /  38.9km/h 37.7% 0in /  0.0mm
13:39 62.2 °F /  16.8 °C 35.8 °F /  2.1 °C 29.6in /  1000.7hPa Oeste 13.7mph /  22.1km/h 31.1mph /  50.1km/h 37.2% 0in /  0.0mm
13:44 62.2 °F /  16.8 °C 35.8 °F /  2.1 °C 29.6in /  1000.6hPa Oeste 13.9mph /  22.4km/h 31mph /  49.9km/h 37.2% 0in /  0.0mm
13:49 62.4 °F /  16.9 °C 35.8 °F /  2.1 °C 29.6in /  1000.6hPa Oeste 14mph /  22.5km/h 28.4mph /  45.7km/h 37% 0in /  0.0mm
13:54 62.4 °F /  16.9 °C 35.8 °F /  2.1 °C 29.6in /  1000.6hPa Oeste 13.7mph /  22km/h 29mph /  46.7km/h 37% 0in /  0.0mm
13:59 62.4 °F /  16.9 °C 35.8 °F /  2.1 °C 29.5in /  1000.5hPa Oeste 13.5mph /  21.7km/h 27.5mph /  44.3km/h 37% 0in /  0.0mm
14:04 62.4 °F /  16.9 °C 35.8 °F /  2.1 °C 29.5in /  1000.5hPa Oeste 14.4mph /  23.1km/h 28mph /  45.1km/h 37% 0in /  0.0mm
14:09 62.4 °F /  16.9 °C 35.2 °F /  1.8 °C 29.6in /  1000.6hPa Oeste 14.7mph /  23.7km/h 28.8mph /  46.3km/h 36.1% 0in /  0.0mm
14:14 62.4 °F /  16.9 °C 35.2 °F /  1.8 °C 29.6in /  1000.6hPa Oeste 15.3mph /  24.6km/h 29.1mph /  46.8km/h 36% 0in /  0.0mm
14:19 62.8 °F /  17.1 °C 35.4 °F /  1.9 °C 29.6in /  1000.6hPa Oeste 15.6mph /  25.1km/h 29mph /  46.7km/h 36% 0in /  0.0mm
14:24 63.3 °F /  17.4 °C 36.3 °F /  2.4 °C 29.6in /  1000.6hPa Oeste 15mph /  24.1km/h 28mph /  45.1km/h 36.4% 0in /  0.0mm
14:29 63.7 °F /  17.6 °C 36.3 °F /  2.4 °C 29.6in /  1000.6hPa Oeste 14.7mph /  23.7km/h 22.3mph /  35.9km/h 36% 0in /  0.0mm
14:34 63.9 °F /  17.7 °C 36.3 °F /  2.4 °C 29.6in /  1000.6hPa ONO 12.7mph /  20.5km/h 22mph /  35.4km/h 36% 0in /  0.0mm
14:39 63.9 °F /  17.7 °C 35.2 °F /  1.8 °C 29.6in /  1000.9hPa Oeste 11.8mph /  19km/h 23.5mph /  37.8km/h 34.5% 0in /  0.0mm
14:44 63.9 °F /  17.7 °C 35.2 °F /  1.8 °C 29.6in /  1000.9hPa Oeste 12.9mph /  20.8km/h 23mph /  37km/h 34.4% 0in /  0.0mm
14:49 63.9 °F /  17.7 °C 34.3 °F /  1.3 °C 29.6in /  1000.9hPa Oeste 13.5mph /  21.7km/h 32.2mph /  51.8km/h 33.3% 0in /  0.0mm
14:54 63.7 °F /  17.6 °C 34 °F /  1.1 °C 29.6in /  1000.9hPa ONO 15mph /  24.1km/h 32mph /  51.5km/h 33% 0in /  0.0mm
14:59 63.7 °F /  17.6 °C 34.5 °F /  1.4 °C 29.6in /  1000.9hPa ONO 15.6mph /  25.1km/h 28.8mph /  46.3km/h 33.6% 0in /  0.0mm
15:04 63.7 °F /  17.6 °C 34.7 °F /  1.5 °C 29.6in /  1000.9hPa Oeste 15mph /  24.1km/h 29mph /  46.7km/h 33.9% 0in /  0.0mm
15:09 63.7 °F /  17.6 °C 34.7 °F /  1.5 °C 29.6in /  1000.9hPa Oeste 14.7mph /  23.7km/h 24mph /  38.6km/h 34% 0in /  0.0mm
15:14 63.9 °F /  17.7 °C 34.5 °F /  1.4 °C 29.6in /  1000.9hPa Oeste 14mph /  22.6km/h 25.3mph /  40.7km/h 33.4% 0in /  0.0mm
15:19 64 °F /  17.8 °C 34.3 °F /  1.3 °C 29.6in /  1000.9hPa OSO 13.7mph /  22.1km/h 25mph /  40.2km/h 33% 0in /  0.0mm
15:24 64 °F /  17.8 °C 34.2 °F /  1.2 °C 29.6in /  1001.2hPa Oeste 13.2mph /  21.3km/h 25.3mph /  40.7km/h 32.8% 0in /  0.0mm
15:29 64 °F /  17.8 °C 34.3 °F /  1.3 °C 29.6in /  1001.2hPa OSO 13mph /  20.9km/h 25mph /  40.2km/h 33% 0in /  0.0mm
15:34 64 °F /  17.8 °C 34.3 °F /  1.3 °C 29.6in /  1001.2hPa Oeste 11.4mph /  18.4km/h 19mph /  30.6km/h 33% 0in /  0.0mm
15:39 63.7 °F /  17.6 °C 34 °F /  1.1 °C 29.6in /  1001.6hPa Oeste 10.7mph /  17.2km/h 23.7mph /  38.1km/h 33% 0in /  0.0mm
15:44 63.5 °F /  17.5 °C 34 °F /  1.1 °C 29.6in /  1001.6hPa OSO 11.8mph /  19km/h 24.2mph /  38.9km/h 33% 0in /  0.0mm
15:49 63.3 °F /  17.4 °C 33.8 °F /  1 °C 29.6in /  1001.6hPa Oeste 12.3mph /  19.8km/h 25.3mph /  40.7km/h 33% 0in /  0.0mm
15:54 63.3 °F /  17.4 °C 33.6 °F /  0.9 °C 29.6in /  1002.0hPa Oeste 12.8mph /  20.6km/h 25mph /  40.2km/h 33% 0in /  0.0mm
15:59 63.3 °F /  17.4 °C 33.6 °F /  0.9 °C 29.6in /  1002.0hPa Oeste 13mph /  20.9km/h 25.6mph /  41.2km/h 33% 0in /  0.0mm
16:04 63.3 °F /  17.4 °C 34.2 °F /  1.2 °C 29.6in /  1002.0hPa ONO 13mph /  20.9km/h 26mph /  41.8km/h 33.7% 0in /  0.0mm
16:09 63.3 °F /  17.4 °C 34 °F /  1.1 °C 29.6in /  1002.1hPa Oeste 13mph /  20.9km/h 25mph /  40.2km/h 33.4% 0in /  0.0mm
16:14 63.3 °F /  17.4 °C 34.5 °F /  1.4 °C 29.6in /  1002.1hPa Oeste 11.9mph /  19.2km/h 20.7mph /  33.3km/h 34% 0in /  0.0mm
16:19 63.7 °F /  17.6 °C 34.2 °F /  1.2 °C 29.6in /  1002.1hPa Oeste 11.4mph /  18.4km/h 27.9mph /  44.9km/h 33.2% 0in /  0.0mm
16:24 63.7 °F /  17.6 °C 34.7 °F /  1.5 °C 29.6in /  1002.4hPa Oeste 12.2mph /  19.6km/h 28mph /  45.1km/h 33.8% 0in /  0.0mm
16:29 63.7 °F /  17.6 °C 34.2 °F /  1.2 °C 29.6in /  1002.4hPa Oeste 12.5mph /  20.1km/h 22.3mph /  35.9km/h 33.2% 0in /  0.0mm
16:34 63.5 °F /  17.5 °C 34 °F /  1.1 °C 29.6in /  1002.4hPa Oeste 11.3mph /  18.2km/h 25.3mph /  40.7km/h 33.1% 0in /  0.0mm
16:39 63.3 °F /  17.4 °C 34.3 °F /  1.3 °C 29.6in /  1002.6hPa Oeste 10.7mph /  17.2km/h 25.3mph /  40.7km/h 33.8% 0in /  0.0mm
16:44 63.3 °F /  17.4 °C 34.3 °F /  1.3 °C 29.6in /  1002.6hPa Oeste 12.2mph /  19.7km/h 27.6mph /  44.4km/h 33.9% 0in /  0.0mm
16:49 63.1 °F /  17.3 °C 34.3 °F /  1.3 °C 29.6in /  1002.6hPa ONO 13mph /  20.9km/h 28mph /  45.1km/h 34% 0in /  0.0mm
16:54 63.1 °F /  17.3 °C 34.3 °F /  1.3 °C 29.6in /  1002.8hPa Oeste 13.7mph /  22km/h 25mph /  40.2km/h 34% 0in /  0.0mm
16:59 63.1 °F /  17.3 °C 34.7 °F /  1.5 °C 29.6in /  1002.8hPa Oeste 14mph /  22.5km/h 21mph /  33.8km/h 34.6% 0in /  0.0mm
17:04 63.1 °F /  17.3 °C 34.7 °F /  1.5 °C 29.6in /  1002.8hPa Oeste 11.7mph /  18.8km/h 20.7mph /  33.3km/h 34.6% 0in /  0.0mm
17:09 63 °F /  17.2 °C 34.9 °F /  1.6 °C 29.6in /  1003.2hPa Oeste 10.7mph /  17.2km/h 21mph /  33.8km/h 35% 0in /  0.0mm
17:14 63 °F /  17.2 °C 34.9 °F /  1.6 °C 29.6in /  1003.2hPa Oeste 9.3mph /  15km/h 18.5mph /  29.8km/h 35% 0in /  0.0mm
17:19 62.8 °F /  17.1 °C 34.9 °F /  1.6 °C 29.6in /  1003.2hPa Oeste 8.7mph /  14km/h 21.5mph /  34.6km/h 35.4% 0in /  0.0mm
17:24 62.4 °F /  16.9 °C 34.7 °F /  1.5 °C 29.6in /  1003.5hPa Oeste 9.7mph /  15.6km/h 22mph /  35.4km/h 35.3% 0in /  0.0mm
17:29 62.4 °F /  16.9 °C 35.1 °F /  1.7 °C 29.6in /  1003.5hPa OSO 10.2mph /  16.4km/h 17.3mph /  27.8km/h 36% 0in /  0.0mm
17:34 62.2 °F /  16.8 °C 34.9 °F /  1.6 °C 29.6in /  1003.5hPa OSO 9.9mph /  15.9km/h 17.3mph /  27.8km/h 36% 0in /  0.0mm
17:39 62.1 °F /  16.7 °C 35.4 °F /  1.9 °C 29.6in /  1003.9hPa OSO 9.7mph /  15.6km/h 16.3mph /  26.2km/h 36.9% 0in /  0.0mm
17:44 62.1 °F /  16.7 °C 35.4 °F /  1.9 °C 29.6in /  1003.9hPa SO 9.7mph /  15.6km/h 19.6mph /  31.5km/h 37% 0in /  0.0mm
17:49 61.9 °F /  16.6 °C 35.2 °F /  1.8 °C 29.6in /  1003.9hPa OSO 9.7mph /  15.6km/h 21.3mph /  34.3km/h 37% 0in /  0.0mm
17:54 61.7 °F /  16.5 °C 35.2 °F /  1.8 °C 29.7in /  1004.2hPa OSO 10.7mph /  17.2km/h 21.3mph /  34.3km/h 37% 0in /  0.0mm
17:59 61.7 °F /  16.5 °C 35.1 °F /  1.7 °C 29.7in /  1004.2hPa OSO 11.2mph /  18km/h 21.3mph /  34.3km/h 37% 0in /  0.0mm
18:04 61.7 °F /  16.5 °C 35.1 °F /  1.7 °C 29.7in /  1004.2hPa SO 11.6mph /  18.7km/h 21mph /  33.8km/h 37% 0in /  0.0mm
18:09 61.5 °F /  16.4 °C 35.1 °F /  1.7 °C 29.7in /  1004.5hPa OSO 11.8mph /  19km/h 21.9mph /  35.2km/h 37% 0in /  0.0mm
18:14 61.3 °F /  16.3 °C 35.1 °F /  1.7 °C 29.7in /  1004.5hPa SO 9.7mph /  15.6km/h 22mph /  35.4km/h 37.3% 0in /  0.0mm
18:19 61.2 °F /  16.2 °C 35.1 °F /  1.7 °C 29.7in /  1004.5hPa SO 8.7mph /  14km/h 20.8mph /  33.5km/h 37.4% 0in /  0.0mm
18:24 61.3 °F /  16.3 °C 35.1 °F /  1.7 °C 29.7in /  1004.7hPa SO 9.8mph /  15.7km/h 21mph /  33.8km/h 37.5% 0in /  0.0mm
18:29 61.2 °F /  16.2 °C 35.2 °F /  1.8 °C 29.7in /  1004.7hPa SO 10.2mph /  16.4km/h 18.4mph /  29.6km/h 38% 0in /  0.0mm
18:34 61.2 °F /  16.2 °C 35.2 °F /  1.8 °C 29.7in /  1004.7hPa SO 10.1mph /  16.2km/h 18.5mph /  29.8km/h 38% 0in /  0.0mm
18:39 61.2 °F /  16.2 °C 35.2 °F /  1.8 °C 29.7in /  1005.0hPa SSO 10mph /  16.1km/h 19mph /  30.6km/h 38% 0in /  0.0mm
18:44 61 °F /  16.1 °C 35.1 °F /  1.7 °C 29.7in /  1005.0hPa SO 9.4mph /  15.2km/h 16.3mph /  26.2km/h 38% 0in /  0.0mm
18:49 60.6 °F /  15.9 °C 34.9 °F /  1.6 °C 29.7in /  1005.0hPa SO 9.2mph /  14.8km/h 17.3mph /  27.8km/h 38% 0in /  0.0mm
18:54 60.6 °F /  15.9 °C 34.9 °F /  1.6 °C 29.7in /  1005.4hPa SO 9.2mph /  14.8km/h 18.4mph /  29.6km/h 38.1% 0in /  0.0mm
18:59 60.4 °F /  15.8 °C 35.2 °F /  1.8 °C 29.7in /  1005.4hPa SO 9.2mph /  14.8km/h 18mph /  29km/h 38.9% 0in /  0.0mm
19:04 60.3 °F /  15.7 °C 35.2 °F /  1.8 °C 29.7in /  1005.4hPa SO 7.6mph /  12.2km/h 16mph /  25.7km/h 39% 0in /  0.0mm
19:09 60.3 °F /  15.7 °C 35.2 °F /  1.8 °C 29.7in /  1005.6hPa SO 6.9mph /  11.1km/h 15mph /  24.1km/h 39% 0in /  0.0mm
19:14 60.3 °F /  15.7 °C 35.2 °F /  1.8 °C 29.7in /  1005.6hPa SO 7.2mph /  11.6km/h 12mph /  19.3km/h 39% 0in /  0.0mm
19:19 60.1 °F /  15.6 °C 35.1 °F /  1.7 °C 29.7in /  1005.6hPa SO 7.4mph /  11.9km/h 13.8mph /  22.2km/h 39% 0in /  0.0mm
19:24 60.1 °F /  15.6 °C 35.1 °F /  1.7 °C 29.7in /  1005.8hPa SO 7.1mph /  11.4km/h 14mph /  22.5km/h 39% 0in /  0.0mm
19:29 59.9 °F /  15.5 °C 34.9 °F /  1.6 °C 29.7in /  1005.8hPa SO 6.9mph /  11.1km/h 19.6mph /  31.5km/h 39% 0in /  0.0mm
19:34 59.9 °F /  15.5 °C 34.9 °F /  1.6 °C 29.7in /  1005.8hPa SO 6.6mph /  10.6km/h 20mph /  32.2km/h 39% 0in /  0.0mm
19:39 60.1 °F /  15.6 °C 35.1 °F /  1.7 °C 29.7in /  1006.0hPa Oeste 6.4mph /  10.3km/h 11.8mph /  19km/h 39% 0in /  0.0mm
19:44 59.9 °F /  15.5 °C 34.9 °F /  1.6 °C 29.7in /  1006.0hPa Oeste 6.1mph /  9.8km/h 16.1mph /  25.9km/h 39% 0in /  0.0mm
19:49 60.1 °F /  15.6 °C 35.1 °F /  1.7 °C 29.7in /  1006.0hPa OSO 5.9mph /  9.5km/h 17.3mph /  27.8km/h 39% 0in /  0.0mm
19:54 60.1 °F /  15.6 °C 35.1 °F /  1.7 °C 29.7in /  1006.0hPa Oeste 7.6mph /  12.3km/h 20.8mph /  33.5km/h 39% 0in /  0.0mm
19:59 60.1 °F /  15.6 °C 35.1 °F /  1.7 °C 29.7in /  1006.0hPa OSO 8.5mph /  13.7km/h 21mph /  33.8km/h 39% 0in /  0.0mm
20:04 59.7 °F /  15.4 °C 34.9 °F /  1.6 °C 29.7in /  1006.0hPa Oeste 9.3mph /  15km/h 18.4mph /  29.6km/h 39.2% 0in /  0.0mm
20:09 59.7 °F /  15.4 °C 35.2 °F /  1.8 °C 29.7in /  1006.1hPa OSO 9.7mph /  15.6km/h 17mph /  27.4km/h 40% 0in /  0.0mm
20:14 59.5 °F /  15.3 °C 35.2 °F /  1.8 °C 29.7in /  1006.1hPa Oeste 9.3mph /  15km/h 16mph /  25.7km/h 40% 0in /  0.0mm
20:19 59.5 °F /  15.3 °C 35.2 °F /  1.8 °C 29.7in /  1006.1hPa Oeste 9.2mph /  14.8km/h 15mph /  24.1km/h 40% 0in /  0.0mm
20:24 59.4 °F /  15.2 °C 35.1 °F /  1.7 °C 29.7in /  1006.3hPa Oeste 8.8mph /  14.1km/h 16.1mph /  25.9km/h 40% 0in /  0.0mm
20:29 59.4 °F /  15.2 °C 35.1 °F /  1.7 °C 29.7in /  1006.3hPa Oeste 8.5mph /  13.7km/h 16mph /  25.7km/h 40% 0in /  0.0mm
20:34 59.2 °F /  15.1 °C 35.1 °F /  1.7 °C 29.7in /  1006.3hPa Oeste 7.9mph /  12.7km/h 15mph /  24.1km/h 40.1% 0in /  0.0mm
20:39 59 °F /  15 °C 35.4 °F /  1.9 °C 29.7in /  1006.6hPa Oeste 7.6mph /  12.2km/h 13mph /  20.9km/h 41% 0in /  0.0mm
20:44 58.6 °F /  14.8 °C 35.1 °F /  1.7 °C 29.7in /  1006.6hPa OSO 6.8mph /  10.9km/h 12mph /  19.3km/h 41% 0in /  0.0mm
20:49 58.6 °F /  14.8 °C 35.2 °F /  1.8 °C 29.7in /  1006.6hPa OSO 6.4mph /  10.3km/h 12mph /  19.3km/h 41.5% 0in /  0.0mm
20:54 58.5 °F /  14.7 °C 35.4 °F /  1.9 °C 29.7in /  1006.9hPa OSO 5.6mph /  9km/h 9.7mph /  15.6km/h 42% 0in /  0.0mm
20:59 58.5 °F /  14.7 °C 35.4 °F /  1.9 °C 29.7in /  1006.9hPa SO 5.2mph /  8.4km/h 10.4mph /  16.7km/h 42% 0in /  0.0mm
21:04 58.3 °F /  14.6 °C 35.2 °F /  1.8 °C 29.7in /  1006.9hPa SO 5.3mph /  8.6km/h 10mph /  16.1km/h 42% 0in /  0.0mm
21:09 58.3 °F /  14.6 °C 35.2 °F /  1.8 °C 29.7in /  1007.0hPa SSO 5.4mph /  8.7km/h 9mph /  14.5km/h 42% 0in /  0.0mm
21:14 58.3 °F /  14.6 °C 35.4 °F /  1.9 °C 29.7in /  1007.0hPa SE 4.5mph /  7.2km/h 7mph /  11.3km/h 42.1% 0in /  0.0mm
21:19 57.9 °F /  14.4 °C 35.6 °F /  2 °C 29.7in /  1007.0hPa Oeste 4mph /  6.5km/h 7.4mph /  11.9km/h 43% 0in /  0.0mm
21:24 57.9 °F /  14.4 °C 35.8 °F /  2.1 °C 29.8in /  1007.4hPa OSO 3.4mph /  5.5km/h 9.2mph /  14.8km/h 43.6% 0in /  0.0mm
21:29 57.7 °F /  14.3 °C 36.1 °F /  2.3 °C 29.8in /  1007.4hPa Oeste 3.1mph /  5km/h 12.3mph /  19.8km/h 44% 0in /  0.0mm
21:34 57.7 °F /  14.3 °C 36 °F /  2.2 °C 29.8in /  1007.4hPa Oeste 3.7mph /  6km/h 13mph /  20.9km/h 44% 0in /  0.0mm
21:39 57.7 °F /  14.3 °C 36 °F /  2.2 °C 29.8in /  1007.5hPa Oeste 4mph /  6.5km/h 13mph /  20.9km/h 44% 0in /  0.0mm
21:44 57.9 °F /  14.4 °C 36.1 °F /  2.3 °C 29.8in /  1007.5hPa Oeste 5.3mph /  8.5km/h 13mph /  20.9km/h 44% 0in /  0.0mm
21:49 57.7 °F /  14.3 °C 36 °F /  2.2 °C 29.8in /  1007.5hPa ONO 5.9mph /  9.5km/h 13mph /  20.9km/h 44% 0in /  0.0mm
21:54 57.7 °F /  14.3 °C 36.5 °F /  2.5 °C 29.8in /  1007.6hPa ONO 5.5mph /  8.9km/h 10.4mph /  16.7km/h 45% 0in /  0.0mm
21:59 57.6 °F /  14.2 °C 36.3 °F /  2.4 °C 29.8in /  1007.6hPa Oeste 5.4mph /  8.7km/h 9.2mph /  14.8km/h 45% 0in /  0.0mm
22:04 57.6 °F /  14.2 °C 36.3 °F /  2.4 °C 29.8in /  1007.6hPa Oeste 4.4mph /  7.1km/h 12.7mph /  20.4km/h 45% 0in /  0.0mm
22:09 57.6 °F /  14.2 °C 36.3 °F /  2.4 °C 29.8in /  1007.6hPa Oeste 4mph /  6.5km/h 13mph /  20.9km/h 45% 0in /  0.0mm
22:14 57.6 °F /  14.2 °C 36.7 °F /  2.6 °C 29.8in /  1007.6hPa Oeste 4.2mph /  6.8km/h 12mph /  19.3km/h 45.8% 0in /  0.0mm
22:19 57.4 °F /  14.1 °C 36.9 °F /  2.7 °C 29.8in /  1007.6hPa OSO 4.3mph /  6.9km/h 13mph /  20.9km/h 46% 0in /  0.0mm
22:24 57.6 °F /  14.2 °C 36.9 °F /  2.7 °C 29.8in /  1007.6hPa OSO 5.3mph /  8.6km/h 14mph /  22.5km/h 46% 0in /  0.0mm
22:29 57.7 °F /  14.3 °C 37 °F /  2.8 °C 29.8in /  1007.5hPa SO 5.9mph /  9.5km/h 14mph /  22.5km/h 46% 0in /  0.0mm
22:34 57.6 °F /  14.2 °C 36.9 °F /  2.7 °C 29.8in /  1007.5hPa SSO 5.5mph /  8.9km/h 11mph /  17.7km/h 46% 0in /  0.0mm
22:39 57.4 °F /  14.1 °C 36.7 °F /  2.6 °C 29.8in /  1007.9hPa SSE 5.4mph /  8.7km/h 9.2mph /  14.8km/h 46% 0in /  0.0mm
22:44 56.5 °F /  13.6 °C 36.1 °F /  2.3 °C 29.8in /  1007.9hPa SE 5mph /  8km/h 10.7mph /  17.2km/h 46.5% 0in /  0.0mm
22:49 55.9 °F /  13.3 °C 36 °F /  2.2 °C 29.8in /  1007.9hPa SSE 4.7mph /  7.6km/h 11mph /  17.7km/h 47% 0in /  0.0mm
22:54 55.9 °F /  13.3 °C 36 °F /  2.2 °C 29.8in /  1008.0hPa SSE 6.2mph /  10km/h 11.5mph /  18.5km/h 47% 0in /  0.0mm
22:59 55.9 °F /  13.3 °C 36 °F /  2.2 °C 29.8in /  1008.0hPa SE 6.9mph /  11.1km/h 12mph /  19.3km/h 47% 0in /  0.0mm
23:04 55.9 °F /  13.3 °C 36.1 °F /  2.3 °C 29.8in /  1008.0hPa SSE 6.5mph /  10.5km/h 14.5mph /  23.3km/h 47% 0in /  0.0mm
23:09 56.5 °F /  13.6 °C 36.1 °F /  2.3 °C 29.8in /  1008.4hPa SSE 6.4mph /  10.3km/h 18.4mph /  29.6km/h 46.3% 0in /  0.0mm
23:14 56.8 °F /  13.8 °C 36.3 °F /  2.4 °C 29.8in /  1008.4hPa SSE 8.6mph /  13.9km/h 18.5mph /  29.8km/h 46% 0in /  0.0mm
23:19 56.8 °F /  13.8 °C 36.3 °F /  2.4 °C 29.8in /  1008.4hPa SSE 9.7mph /  15.6km/h 19mph /  30.6km/h 46% 0in /  0.0mm
23:24 57 °F /  13.9 °C 36.3 °F /  2.4 °C 29.8in /  1008.8hPa SSE 10.7mph /  17.3km/h 18mph /  29km/h 45.8% 0in /  0.0mm
23:29 57 °F /  13.9 °C 36 °F /  2.2 °C 29.8in /  1008.8hPa Sur 11.2mph /  18km/h 16.1mph /  25.9km/h 45% 0in /  0.0mm
23:34 57.2 °F /  14 °C 36 °F /  2.2 °C 29.8in /  1008.8hPa Sur 9.5mph /  15.3km/h 16mph /  25.7km/h 45% 0in /  0.0mm
23:39 57.4 °F /  14.1 °C 35.8 °F /  2.1 °C 29.8in /  1008.9hPa SSO 8.7mph /  14km/h 10mph /  16.1km/h 44.3% 0in /  0.0mm
23:44 57.2 °F /  14 °C 35.6 °F /  2 °C 29.8in /  1008.9hPa SSO 6.5mph /  10.4km/h 10.4mph /  16.7km/h 44.2% 0in /  0.0mm
23:49 57 °F /  13.9 °C 35.8 °F /  2.1 °C 29.8in /  1008.9hPa Sur 5.4mph /  8.7km/h 10mph /  16.1km/h 45% 0in /  0.0mm
23:54 56.8 °F /  13.8 °C 35.8 °F /  2.1 °C 29.8in /  1008.9hPa SSO 6mph /  9.6km/h 15mph /  24.1km/h 45% 0in /  0.0mm
23:59 57 °F /  13.9 °C 36 °F /  2.2 °C 29.8in /  1008.8hPa SSO 6.2mph /  10km/h 15mph /  24.1km/h 45% 0in /  0.0mm
Murcia-Puente Tocinos, España
Compliments of Weather Underground - 2.75 mb

La estación de MeteoMurcia.com, publica sus datos en los siguientes proyectos:

Weather Underground PWS IMURCIAP2 Meteoclimatic www.awekas.at

W3Counter
Web Analytics